Time;durP1;ratioP1;P1;durP2;ratioP2;P2;SDS_P1;SDS_P2;PMS_P1;PMS_P2;Temp;Humidity;BMP_temperature;BMP_pressure;BME280_temperature;BME280_humidity;BME280_pressure;Samples;Min_cycle;Max_cycle;Signal;HPM_P1;HPM_P2
2022/09/13 00:00:40;;;;;;;;;;;;;;;16.11;64.88;101072.63;4961143;28;20308;-55
2022/09/13 00:03:05;;;;;;;;;;;;;;;16.10;64.85;101065.66;4957830;28;19929;-57
2022/09/13 00:05:30;;;;;;;;;;;;;;;16.10;64.78;101065.66;4965148;28;20325;-60
2022/09/13 00:07:56;;;;;;;;;;;;;;;16.09;64.68;101058.66;4960062;28;19957;-58
2022/09/13 00:10:22;;;;;;;;;;;;;;;16.07;64.86;101054.38;4958275;28;19926;-55
2022/09/13 00:12:47;;;;;;;;;;;;;;;16.07;64.77;101051.75;4956619;28;19933;-60
2022/09/13 00:15:13;;;;;;;;;;;;;;;16.07;64.84;101047.28;4956708;28;19925;-58
2022/09/13 00:17:39;;;;;;;;;;;;;;;16.07;64.74;101043.78;4963703;28;20082;-58
2022/09/13 00:20:05;;;;;;;;;;;;;;;16.06;64.71;101047.38;4962764;28;19937;-57
2022/09/13 00:22:30;;;;;;;;;;;;;;;16.06;64.62;101050.91;4955187;28;19977;-56
2022/09/13 00:24:55;;;;;;;;;;;;;;;16.06;64.83;101042.09;4959622;28;19961;-56
2022/09/13 00:27:20;;;;;;;;;;;;;;;16.04;64.69;101039.56;4955669;28;19981;-57
2022/09/13 00:29:46;;;;;;;;;;;;;;;16.00;64.88;101038.09;4965000;28;19926;-59
2022/09/13 00:32:11;;;;;;;;;;;;;;;15.98;64.91;101034.69;4957713;28;20503;-54
2022/09/13 00:34:37;;;;;;;;;;;;;;;15.95;65.01;101024.34;4955890;28;20436;-58
2022/09/13 00:37:02;;;;;;;;;;;;;;;15.95;64.97;101029.66;4962653;28;19926;-59
2022/09/13 00:39:27;;;;;;;;;;;;;;;15.94;64.99;101026.13;4962454;28;19922;-57
2022/09/13 00:41:53;;;;;;;;;;;;;;;15.95;65.06;101013.72;4962588;28;19926;-58
2022/09/13 00:44:37;;;;;;;;;;;;;;;15.98;64.85;101019.66;4960256;28;19922;-59
2022/09/13 00:47:02;;;;;;;;;;;;;;;15.99;64.88;101017.81;4957419;28;19930;-61
2022/09/13 00:49:34;;;;;;;;;;;;;;;15.99;64.78;101010.72;4959261;28;19928;-57
2022/09/13 00:52:02;;;;;;;;;;;;;;;16.00;64.84;101004.44;4956538;28;19922;-62
2022/09/13 00:54:30;;;;;;;;;;;;;;;16.00;64.76;100990.31;4961449;28;19929;-61
2022/09/13 00:56:57;;;;;;;;;;;;;;;15.98;64.78;100984.28;4956750;28;19926;-58
2022/09/13 00:59:29;;;;;;;;;;;;;;;15.97;64.77;100982.59;4950651;28;20384;-56
2022/09/13 01:01:56;;;;;;;;;;;;;;;15.98;64.94;100986.94;4958105;28;19926;-58
2022/09/13 01:04:23;;;;;;;;;;;;;;;15.98;64.82;100987.78;4959127;28;19930;-55
2022/09/13 01:06:53;;;;;;;;;;;;;;;15.98;64.76;100981.63;4958875;28;20297;-59
2022/09/13 01:09:18;;;;;;;;;;;;;;;15.98;64.82;100973.66;4961262;28;20042;-56
2022/09/13 01:12:03;;;;;;;;;;;;;;;15.99;64.76;100968.25;4954057;28;19930;-55
2022/09/13 01:14:29;;;;;;;;;;;;;;;16.00;64.73;100964.63;4964223;28;19917;-55
2022/09/13 01:16:54;;;;;;;;;;;;;;;16.01;64.89;100954.84;4962243;28;20139;-54
2022/09/13 01:19:20;;;;;;;;;;;;;;;16.02;64.54;100953.91;4956865;28;19929;-56
2022/09/13 01:22:00;;;;;;;;;;;;;;;16.01;64.90;100944.25;4954084;28;19926;-58
2022/09/13 01:24:53;;;;;;;;;;;;;;;16.02;64.64;100942.44;4952945;28;19969;-59
2022/09/13 01:27:18;;;;;;;;;;;;;;;15.99;64.75;100946.16;4955440;28;19980;-54
2022/09/13 01:29:55;;;;;;;;;;;;;;;15.98;64.67;100941.81;4954413;28;20025;-58
2022/09/13 01:32:40;;;;;;;;;;;;;;;15.98;64.83;100936.50;4955239;28;20025;-55
2022/09/13 01:35:11;;;;;;;;;;;;;;;15.97;64.73;100940.13;4958521;28;19949;-55
2022/09/13 01:37:55;;;;;;;;;;;;;;;15.96;64.82;100933.97;4959363;28;19933;-60
2022/09/13 01:40:33;;;;;;;;;;;;;;;15.94;64.87;100933.25;4959007;28;19926;-56
2022/09/13 01:42:58;;;;;;;;;;;;;;;15.94;64.95;100927.13;4960759;28;19924;-59
2022/09/13 01:45:42;;;;;;;;;;;;;;;15.92;64.80;100940.50;4952779;28;19926;-55
2022/09/13 01:48:15;;;;;;;;;;;;;;;15.87;64.89;100942.66;4960320;28;20004;-57
2022/09/13 01:50:41;;;;;;;;;;;;;;;15.87;64.96;100940.00;4955556;28;20995;-56
2022/09/13 01:53:15;;;;;;;;;;;;;;;15.84;64.88;100938.38;4961859;28;20004;-56
2022/09/13 01:55:54;;;;;;;;;;;;;;;15.82;65.02;100934.19;4958733;28;19926;-58
2022/09/13 01:58:23;;;;;;;;;;;;;;;15.83;64.85;100931.41;4957554;28;19930;-57
2022/09/13 02:00:54;;;;;;;;;;;;;;;15.83;64.99;100933.22;4961575;28;19964;-57
2022/09/13 02:03:23;;;;;;;;;;;;;;;15.84;64.90;100927.78;4960700;28;19918;-58
2022/09/13 02:05:53;;;;;;;;;;;;;;;15.85;64.98;100924.19;4957659;28;19926;-62
2022/09/13 02:08:22;;;;;;;;;;;;;;;15.88;64.96;100927.59;4964914;28;20013;-59
2022/09/13 02:10:56;;;;;;;;;;;;;;;15.88;64.82;100919.63;4958936;28;20422;-56
2022/09/13 02:13:25;;;;;;;;;;;;;;;15.88;64.92;100916.97;4957360;28;19925;-59
2022/09/13 02:15:53;;;;;;;;;;;;;;;15.88;64.94;100906.34;4967648;28;19961;-61
2022/09/13 02:18:21;;;;;;;;;;;;;;;15.89;64.84;100897.44;4964930;28;19922;-56
2022/09/13 02:20:49;;;;;;;;;;;;;;;15.91;64.79;100895.50;4960727;28;20377;-58
2022/09/13 02:23:19;;;;;;;;;;;;;;;15.91;64.89;100892.84;4965031;28;19930;-56
2022/09/13 02:25:46;;;;;;;;;;;;;;;15.92;64.85;100883.94;4962587;28;19986;-57
2022/09/13 02:28:14;;;;;;;;;;;;;;;15.93;64.87;100881.16;4962706;28;19968;-57
2022/09/13 02:30:42;;;;;;;;;;;;;;;15.96;64.86;100888.00;4963415;28;19922;-57
2022/09/13 02:33:14;;;;;;;;;;;;;;;15.96;64.72;100888.88;4968454;28;19972;-56
2022/09/13 02:35:52;;;;;;;;;;;;;;;15.96;64.86;100888.00;4963979;28;19985;-55
2022/09/13 02:38:30;;;;;;;;;;;;;;;15.95;64.73;100895.13;4965899;28;19922;-54
2022/09/13 02:40:57;;;;;;;;;;;;;;;15.93;64.83;100883.78;4957276;28;19926;-55
2022/09/13 02:43:30;;;;;;;;;;;;;;;15.92;64.91;100882.09;4957507;28;19926;-58
2022/09/13 02:46:05;;;;;;;;;;;;;;;15.91;64.98;100882.25;4963451;28;20362;-56
2022/09/13 02:48:47;;;;;;;;;;;;;;;15.91;64.94;100882.25;4959089;28;19929;-57
2022/09/13 02:51:22;;;;;;;;;;;;;;;15.89;64.87;100885.00;4957911;28;19922;-58
2022/09/13 02:54:06;;;;;;;;;;;;;;;15.87;64.94;100880.78;4963849;28;19926;-59
2022/09/13 02:56:37;;;;;;;;;;;;;;;15.85;64.91;100875.59;4959629;28;19926;-57
2022/09/13 02:59:11;;;;;;;;;;;;;;;15.84;64.99;100866.75;4958589;28;20460;-55
2022/09/13 03:01:38;;;;;;;;;;;;;;;15.82;64.92;100858.06;4957845;28;20382;-54
2022/09/13 03:04:03;;;;;;;;;;;;;;;15.80;65.07;100862.69;4966356;28;20012;-58
2022/09/13 03:06:29;;;;;;;;;;;;;;;15.77;64.95;100852.28;4964549;28;20012;-60
2022/09/13 03:08:56;;;;;;;;;;;;;;;15.76;65.07;100855.03;4960683;28;20071;-61
2022/09/13 03:11:34;;;;;;;;;;;;;;;15.75;65.11;100842.75;4958166;28;19922;-59
2022/09/13 03:14:17;;;;;;;;;;;;;;;15.75;65.00;100840.09;4967321;28;19929;-57
2022/09/13 03:17:21;;;;;;;;;;;;;;;15.72;65.07;100833.22;4965889;28;19925;-58
2022/09/13 03:20:10;;;;;;;;;;;;;;;15.71;65.06;100836.84;4904441;29;19926;-57
2022/09/13 03:22:54;;;;;;;;;;;;;;;15.72;65.11;100821.78;4903417;29;19974;-58
2022/09/13 03:25:29;;;;;;;;;;;;;;;15.70;65.07;100820.09;4945383;28;20028;-56
2022/09/13 03:28:13;;;;;;;;;;;;;;;15.70;65.05;100820.09;4959656;28;20777;-58
2022/09/13 03:30:43;;;;;;;;;;;;;;;15.70;65.14;100816.59;4954489;28;19973;-56
2022/09/13 03:33:30;;;;;;;;;;;;;;;15.70;65.13;100812.13;4964074;28;20397;-56
2022/09/13 03:36:10;;;;;;;;;;;;;;;15.73;65.20;100810.22;4961971;28;19922;-57
2022/09/13 03:38:44;;;;;;;;;;;;;;;15.75;65.07;100814.44;4964853;28;19922;-57
2022/09/13 03:41:14;;;;;;;;;;;;;;;15.76;65.19;100810.81;4958896;28;19918;-55
2022/09/13 03:43:46;;;;;;;;;;;;;;;15.79;65.19;100812.38;4963676;28;20375;-56
2022/09/13 03:46:17;;;;;;;;;;;;;;;15.81;65.16;100800.66;4961152;28;19926;-58
2022/09/13 03:48:44;;;;;;;;;;;;;;;15.82;65.06;100799.69;4958451;28;20164;-55
2022/09/13 03:51:10;;;;;;;;;;;;;;;15.84;64.95;100792.47;4964419;28;19924;-59
2022/09/13 03:53:38;;;;;;;;;;;;;;;15.87;64.86;100788.78;4953448;28;19932;-56
2022/09/13 03:56:17;;;;;;;;;;;;;;;15.88;65.01;100784.31;4954818;28;19928;-57
2022/09/13 03:58:42;;;;;;;;;;;;;;;15.91;65.02;100774.28;4961757;28;19926;-59
2022/09/13 04:01:09;;;;;;;;;;;;;;;15.93;65.02;100777.66;4960313;28;20328;-58
2022/09/13 04:03:34;;;;;;;;;;;;;;;15.96;65.08;100781.88;4953900;28;19980;-55
2022/09/13 04:06:00;;;;;;;;;;;;;;;15.98;65.04;100779.94;4957176;28;20016;-58
2022/09/13 04:08:25;;;;;;;;;;;;;;;15.98;65.06;100778.13;4956280;28;20004;-57
2022/09/13 04:10:53;;;;;;;;;;;;;;;16.00;64.99;100768.25;4964391;28;19926;-56
2022/09/13 04:13:21;;;;;;;;;;;;;;;15.99;65.07;100769.22;4961137;28;20044;-56
2022/09/13 04:15:46;;;;;;;;;;;;;;;16.00;65.05;100768.25;4959591;28;20067;-58
2022/09/13 04:18:12;;;;;;;;;;;;;;;16.03;65.12;100771.63;4966710;28;19938;-56
2022/09/13 04:20:37;;;;;;;;;;;;;;;16.05;65.11;100775.84;4957616;28;20650;-55
2022/09/13 04:23:03;;;;;;;;;;;;;;;16.05;65.08;100759.91;4952392;28;19936;-58
2022/09/13 04:25:28;;;;;;;;;;;;;;;16.08;64.93;100764.13;4953185;28;20872;-57
2022/09/13 04:27:54;;;;;;;;;;;;;;;16.09;64.95;100764.00;4955314;28;20021;-58
2022/09/13 04:30:20;;;;;;;;;;;;;;;16.10;65.00;100752.44;4948920;28;19937;-56
2022/09/13 04:32:46;;;;;;;;;;;;;;;16.12;65.00;100763.75;4952872;28;20401;-57
2022/09/13 04:35:11;;;;;;;;;;;;;;;16.13;64.97;100749.50;4953741;28;20020;-54
2022/09/13 04:37:37;;;;;;;;;;;;;;;16.15;65.08;100744.91;4963395;28;19936;-59
2022/09/13 04:40:03;;;;;;;;;;;;;;;16.17;65.11;100746.59;4953857;28;19976;-59
2022/09/13 04:42:28;;;;;;;;;;;;;;;16.18;65.02;100740.31;4954841;28;19934;-60
2022/09/13 04:44:53;;;;;;;;;;;;;;;16.19;64.86;100734.06;4962109;28;19929;-59
2022/09/13 04:47:19;;;;;;;;;;;;;;;16.20;65.19;100727.78;4960833;28;19926;-57
2022/09/13 04:49:44;;;;;;;;;;;;;;;16.22;64.97;100729.31;4956720;28;19985;-56
2022/09/13 04:52:09;;;;;;;;;;;;;;;16.24;64.95;100721.25;4969962;28;19926;-58
2022/09/13 04:54:35;;;;;;;;;;;;;;;16.27;64.97;100715.66;4952125;28;19926;-58
2022/09/13 04:57:00;;;;;;;;;;;;;;;16.30;64.91;100718.94;4951972;28;20370;-57
2022/09/13 04:59:25;;;;;;;;;;;;;;;16.32;64.88;100713.50;4956700;28;19926;-57
2022/09/13 05:01:51;;;;;;;;;;;;;;;16.34;64.86;100716.88;4964511;28;19922;-58
2022/09/13 05:04:16;;;;;;;;;;;;;;;16.35;65.08;100718.56;4963783;28;19926;-58
2022/09/13 05:06:41;;;;;;;;;;;;;;;16.38;64.98;100718.31;4963976;28;19934;-60
2022/09/13 05:09:10;;;;;;;;;;;;;;;16.39;65.06;100720.00;4963823;28;19970;-59
2022/09/13 05:11:35;;;;;;;;;;;;;;;16.40;64.91;100703.09;4960423;28;20109;-58
2022/09/13 05:14:01;;;;;;;;;;;;;;;16.42;64.98;100708.25;4967565;28;20012;-55
2022/09/13 05:16:28;;;;;;;;;;;;;;;16.44;65.11;100699.19;4965536;28;19926;-55
2022/09/13 05:18:54;;;;;;;;;;;;;;;16.46;65.20;100694.59;4966349;28;20398;-56
2022/09/13 05:21:20;;;;;;;;;;;;;;;16.49;65.22;100682.03;4962893;28;19930;-57
2022/09/13 05:23:49;;;;;;;;;;;;;;;16.51;65.05;100685.41;4961874;28;19926;-55
2022/09/13 05:26:14;;;;;;;;;;;;;;;16.54;64.96;100693.13;4966810;28;19930;-58
2022/09/13 05:28:39;;;;;;;;;;;;;;;16.58;65.02;100686.56;4963510;28;19988;-58
2022/09/13 05:31:19;;;;;;;;;;;;;;;16.59;65.07;100690.91;4964313;28;19933;-58
2022/09/13 05:33:45;;;;;;;;;;;;;;;16.60;65.27;100689.94;4965522;28;20313;-56
2022/09/13 05:36:10;;;;;;;;;;;;;;;16.63;65.08;100683.53;4967405;28;19926;-60
2022/09/13 05:38:35;;;;;;;;;;;;;;;16.65;64.98;100676.25;4966937;28;19925;-59
2022/09/13 05:41:01;;;;;;;;;;;;;;;16.66;65.16;100684.13;4968229;28;20287;-57
2022/09/13 05:43:28;;;;;;;;;;;;;;;16.68;65.30;100687.50;4968907;28;19926;-58
2022/09/13 05:46:03;;;;;;;;;;;;;;;16.70;64.93;100674.91;4968657;28;19926;-55
2022/09/13 05:48:29;;;;;;;;;;;;;;;16.74;64.96;100670.19;4963230;28;20437;-58
2022/09/13 05:50:54;;;;;;;;;;;;;;;16.75;64.94;100662.06;4967253;28;19922;-59
2022/09/13 05:53:20;;;;;;;;;;;;;;;16.77;64.92;100657.47;4967643;28;19933;-57
2022/09/13 05:55:45;;;;;;;;;;;;;;;16.79;65.04;100662.63;4968965;28;19937;-58
2022/09/13 05:58:10;;;;;;;;;;;;;;;16.81;64.80;100659.88;4969318;28;20390;-55
2022/09/13 06:00:36;;;;;;;;;;;;;;;16.82;64.77;100657.06;4970094;28;19928;-58
2022/09/13 06:03:02;;;;;;;;;;;;;;;16.84;65.08;100651.63;4965798;28;19925;-55
2022/09/13 06:05:27;;;;;;;;;;;;;;;16.85;64.77;100648.00;4969233;28;19918;-54
2022/09/13 06:07:52;;;;;;;;;;;;;;;16.86;64.91;100641.72;4967672;28;19930;-57
2022/09/13 06:10:19;;;;;;;;;;;;;;;16.88;64.71;100650.38;4967518;28;19922;-54
2022/09/13 06:12:44;;;;;;;;;;;;;;;16.89;64.93;100658.25;4966365;28;19929;-57
2022/09/13 06:15:10;;;;;;;;;;;;;;;16.89;64.61;100642.28;4969478;28;20017;-57
2022/09/13 06:17:35;;;;;;;;;;;;;;;16.89;64.71;100641.44;4967913;28;19926;-58
2022/09/13 06:20:01;;;;;;;;;;;;;;;16.91;64.73;100650.13;4967917;28;20461;-58
2022/09/13 06:22:31;;;;;;;;;;;;;;;16.91;64.91;100644.81;4965944;28;19976;-62
2022/09/13 06:24:57;;;;;;;;;;;;;;;16.92;64.74;100636.72;4969174;28;19926;-60
2022/09/13 06:27:22;;;;;;;;;;;;;;;16.93;64.74;100642.88;4968652;28;19926;-58
2022/09/13 06:29:48;;;;;;;;;;;;;;;16.95;64.76;100640.09;4966710;28;19922;-58
2022/09/13 06:32:13;;;;;;;;;;;;;;;16.97;64.52;100640.81;4969283;28;19925;-57
2022/09/13 06:34:38;;;;;;;;;;;;;;;16.96;64.60;100634.66;4966583;28;19930;-56
2022/09/13 06:37:04;;;;;;;;;;;;;;;16.94;64.46;100625.94;4968511;28;19973;-57
2022/09/13 06:39:31;;;;;;;;;;;;;;;16.92;64.56;100636.72;4967405;28;20297;-57
2022/09/13 06:41:56;;;;;;;;;;;;;;;16.91;64.46;100635.03;4969305;28;19922;-58
2022/09/13 06:44:22;;;;;;;;;;;;;;;16.89;64.65;100631.66;4966999;28;19930;-57
2022/09/13 06:46:47;;;;;;;;;;;;;;;16.86;64.65;100639.06;4966651;28;20490;-56
2022/09/13 06:49:13;;;;;;;;;;;;;;;16.83;64.55;100647.31;4966017;28;20033;-57
2022/09/13 06:51:38;;;;;;;;;;;;;;;16.83;64.33;100655.28;4964103;28;19933;-57
2022/09/13 06:54:03;;;;;;;;;;;;;;;16.80;64.44;100653.69;4962604;28;19937;-61
2022/09/13 06:56:31;;;;;;;;;;;;;;;16.77;64.55;100665.44;4966834;28;20398;-54
2022/09/13 06:59:02;;;;;;;;;;;;;;;16.76;64.72;100663.75;4967231;28;19918;-57
2022/09/13 07:01:28;;;;;;;;;;;;;;;16.74;64.61;100660.38;4968358;28;19922;-57
2022/09/13 07:03:57;;;;;;;;;;;;;;;16.75;64.69;100643.47;4963477;28;19941;-57
2022/09/13 07:06:24;;;;;;;;;;;;;;;16.75;64.86;100647.97;4964921;28;19930;-59
2022/09/13 07:08:50;;;;;;;;;;;;;;;16.76;64.70;100644.31;4970377;28;19976;-57
2022/09/13 07:11:17;;;;;;;;;;;;;;;16.79;64.81;100649.34;4968883;28;20294;-56
2022/09/13 07:13:46;;;;;;;;;;;;;;;16.81;64.80;100644.75;4968992;28;20406;-54
2022/09/13 07:16:11;;;;;;;;;;;;;;;16.85;64.90;100632.06;4968083;28;19957;-56
2022/09/13 07:18:37;;;;;;;;;;;;;;;16.89;64.70;100636.13;4967946;28;20021;-57
2022/09/13 07:21:03;;;;;;;;;;;;;;;16.93;64.82;100637.53;4968625;28;19922;-61
2022/09/13 07:23:32;;;;;;;;;;;;;;;16.98;64.77;100630.06;4967311;28;19922;-56
2022/09/13 07:26:01;;;;;;;;;;;;;;;17.02;64.59;100636.78;4968681;28;19926;-58
2022/09/13 07:28:30;;;;;;;;;;;;;;;17.04;64.65;100628.69;4968198;28;19926;-58
2022/09/13 07:30:57;;;;;;;;;;;;;;;17.05;64.56;100630.38;4963237;28;19918;-56
2022/09/13 07:33:23;;;;;;;;;;;;;;;17.05;64.58;100631.19;4967640;28;19926;-59
2022/09/13 07:35:53;;;;;;;;;;;;;;;17.06;64.72;100632.88;4965144;28;20309;-58
2022/09/13 07:38:18;;;;;;;;;;;;;;;17.06;64.68;100627.56;4967329;28;19918;-57
2022/09/13 07:40:52;;;;;;;;;;;;;;;17.06;64.55;100635.53;4966531;28;19985;-57
2022/09/13 07:43:17;;;;;;;;;;;;;;;17.03;64.78;100633.13;4965270;28;19953;-60
2022/09/13 07:45:42;;;;;;;;;;;;;;;17.02;64.46;100628.78;4964332;28;20562;-57
2022/09/13 07:48:07;;;;;;;;;;;;;;;17.02;64.62;100625.31;4968091;28;20034;-55
2022/09/13 07:50:33;;;;;;;;;;;;;;;17.01;64.49;100623.63;4965057;28;19930;-54
2022/09/13 07:52:58;;;;;;;;;;;;;;;16.99;64.68;100630.88;4964774;28;20012;-55
2022/09/13 07:55:23;;;;;;;;;;;;;;;16.98;64.53;100637.19;4970034;28;20016;-61
2022/09/13 07:57:49;;;;;;;;;;;;;;;16.99;64.53;100633.53;4957774;28;20701;-59
2022/09/13 08:00:14;;;;;;;;;;;;;;;16.97;64.61;100633.69;4964891;28;19940;-56
2022/09/13 08:02:39;;;;;;;;;;;;;;;16.97;64.47;100635.50;4964801;28;19925;-60
2022/09/13 08:05:05;;;;;;;;;;;;;;;16.96;64.52;100634.66;4966424;28;19956;-60
2022/09/13 08:07:31;;;;;;;;;;;;;;;16.95;64.52;100632.13;4964518;28;20357;-58
2022/09/13 08:09:57;;;;;;;;;;;;;;;16.95;64.56;100625.00;4965905;28;19922;-56
2022/09/13 08:12:22;;;;;;;;;;;;;;;16.95;64.79;100632.97;4967643;28;19925;-55
2022/09/13 08:14:47;;;;;;;;;;;;;;;16.98;64.66;100634.53;4968441;28;19976;-55
2022/09/13 08:17:13;;;;;;;;;;;;;;;16.99;64.68;100633.53;4968044;28;20325;-55
2022/09/13 08:19:38;;;;;;;;;;;;;;;16.99;64.71;100626.44;4966102;28;20045;-57
2022/09/13 08:22:04;;;;;;;;;;;;;;;17.01;64.91;100624.47;4963971;28;20333;-56
2022/09/13 08:24:29;;;;;;;;;;;;;;;17.02;64.90;100628.78;4968498;28;19922;-56
2022/09/13 08:26:54;;;;;;;;;;;;;;;17.04;64.64;100621.53;4966676;28;19928;-57
2022/09/13 08:29:20;;;;;;;;;;;;;;;17.05;64.78;100604.63;4968012;28;19926;-57
2022/09/13 08:31:45;;;;;;;;;;;;;;;17.06;64.63;100600.97;4964301;28;19929;-58
2022/09/13 08:34:13;;;;;;;;;;;;;;;17.08;64.97;100590.22;4965997;28;19932;-59
2022/09/13 08:36:39;;;;;;;;;;;;;;;17.10;65.03;100596.22;4966019;28;19925;-61
2022/09/13 08:39:05;;;;;;;;;;;;;;;17.14;65.12;100602.13;4963280;28;20377;-59
2022/09/13 08:41:47;;;;;;;;;;;;;;;17.19;64.94;100589.25;4963099;28;19928;-58
2022/09/13 08:44:31;;;;;;;;;;;;;;;17.27;64.93;100597.41;4963926;28;19926;-58
2022/09/13 08:47:15;;;;;;;;;;;;;;;17.31;65.01;100598.84;4966640;28;20019;-56
2022/09/13 08:49:43;;;;;;;;;;;;;;;17.36;64.88;100601.91;4963096;28;19918;-55
2022/09/13 08:52:11;;;;;;;;;;;;;;;17.42;64.69;100605.00;4961516;28;20020;-57
2022/09/13 08:54:36;;;;;;;;;;;;;;;17.45;64.73;100604.75;4966305;28;19922;-56
2022/09/13 08:57:08;;;;;;;;;;;;;;;17.48;64.61;100607.09;4967032;28;19918;-54
2022/09/13 08:59:50;;;;;;;;;;;;;;;17.50;64.68;100598.03;4967217;28;20363;-55
2022/09/13 09:02:15;;;;;;;;;;;;;;;17.52;64.59;100603.19;4966569;28;19918;-55
2022/09/13 09:05:00;;;;;;;;;;;;;;;17.51;64.43;100599.72;4966948;28;19929;-57
2022/09/13 09:07:27;;;;;;;;;;;;;;;17.49;64.50;100591.03;4965248;28;19973;-56
2022/09/13 09:10:18;;;;;;;;;;;;;;;17.49;64.84;100593.69;4967916;28;20050;-56
2022/09/13 09:12:43;;;;;;;;;;;;;;;17.50;64.69;100602.50;4964222;28;19929;-56
2022/09/13 09:15:32;;;;;;;;;;;;;;;17.56;64.94;100606.41;4970625;28;19918;-55
2022/09/13 09:18:17;;;;;;;;;;;;;;;17.57;64.73;100602.78;4970910;28;19920;-55
2022/09/13 09:20:45;;;;;;;;;;;;;;;17.59;64.83;100612.31;4968791;28;19919;-57
2022/09/13 09:23:16;;;;;;;;;;;;;;;17.62;64.49;100612.03;4965690;28;20275;-56
2022/09/13 09:25:41;;;;;;;;;;;;;;;17.64;64.84;100610.06;4969435;28;19922;-57
2022/09/13 09:28:20;;;;;;;;;;;;;;;17.64;64.93;100626.03;4968841;28;19926;-54
2022/09/13 09:31:06;;;;;;;;;;;;;;;17.64;64.91;100620.72;4970293;28;20539;-55
2022/09/13 09:33:40;;;;;;;;;;;;;;;17.60;65.42;100614.00;4969013;28;19922;-56
2022/09/13 09:36:14;;;;;;;;;;;;;;;17.58;65.49;100617.75;4969487;28;19993;-54
2022/09/13 09:38:41;;;;;;;;;;;;;;;17.56;65.44;100604.63;4970064;28;20382;-57
2022/09/13 09:41:25;;;;;;;;;;;;;;;17.55;65.79;100602.94;4968542;28;19921;-55
2022/09/13 09:43:51;;;;;;;;;;;;;;;17.58;65.66;100602.66;4969417;28;20465;-54
2022/09/13 09:46:19;;;;;;;;;;;;;;;17.63;65.90;100588.94;4968843;28;20854;-55
2022/09/13 09:48:49;;;;;;;;;;;;;;;17.66;65.65;100578.03;4967195;28;19926;-57
2022/09/13 09:51:17;;;;;;;;;;;;;;;17.74;65.74;100572.00;4969359;28;19926;-58
2022/09/13 09:53:46;;;;;;;;;;;;;;;17.82;65.95;100578.31;4968885;28;19922;-58
2022/09/13 09:56:17;;;;;;;;;;;;;;;17.92;65.75;100583.59;4968450;28;19929;-54
2022/09/13 09:58:44;;;;;;;;;;;;;;;18.05;65.74;100579.88;4968197;28;20020;-57
2022/09/13 10:01:15;;;;;;;;;;;;;;;18.16;65.53;100576.19;4966737;28;19930;-57
2022/09/13 10:03:41;;;;;;;;;;;;;;;18.27;65.34;100584.06;4968947;28;19926;-56
2022/09/13 10:06:11;;;;;;;;;;;;;;;18.33;65.44;100582.63;4969643;28;20279;-57
2022/09/13 10:08:38;;;;;;;;;;;;;;;18.37;65.13;100578.72;4968024;28;19957;-60
2022/09/13 10:11:04;;;;;;;;;;;;;;;18.37;65.51;100576.88;4965076;28;20278;-55
2022/09/13 10:13:31;;;;;;;;;;;;;;;18.36;65.04;100577.03;4966857;28;19929;-55
2022/09/13 10:15:58;;;;;;;;;;;;;;;18.35;65.12;100586.00;4969632;28;19918;-55
2022/09/13 10:18:28;;;;;;;;;;;;;;;18.35;65.21;100586.00;4968667;28;19925;-56
2022/09/13 10:21:12;;;;;;;;;;;;;;;18.35;65.39;100575.34;4967281;28;19945;-58
2022/09/13 10:23:38;;;;;;;;;;;;;;;18.33;65.41;100561.31;4968566;28;19926;-57
2022/09/13 10:26:07;;;;;;;;;;;;;;;18.37;65.26;100562.72;4966102;28;19929;-57
2022/09/13 10:28:34;;;;;;;;;;;;;;;18.41;65.29;100561.44;4969784;28;20404;-56
2022/09/13 10:31:02;;;;;;;;;;;;;;;18.45;65.54;100570.81;4966839;28;19929;-54
2022/09/13 10:33:36;;;;;;;;;;;;;;;18.53;65.67;100565.59;4966593;28;19933;-56
2022/09/13 10:36:22;;;;;;;;;;;;;;;18.61;65.54;100562.22;4965649;28;19949;-58
2022/09/13 10:38:56;;;;;;;;;;;;;;;18.67;65.09;100558.97;4967440;28;20074;-55
2022/09/13 10:41:23;;;;;;;;;;;;;;;18.70;64.97;100560.50;4966378;28;20310;-56
2022/09/13 10:43:55;;;;;;;;;;;;;;;18.66;65.41;100557.28;4965685;28;20375;-58
2022/09/13 10:46:22;;;;;;;;;;;;;;;18.66;65.65;100561.81;4965950;28;20408;-61
2022/09/13 10:48:54;;;;;;;;;;;;;;;18.67;65.78;100548.31;4967867;28;20012;-57
2022/09/13 10:51:26;;;;;;;;;;;;;;;18.72;65.67;100550.53;4968487;28;19926;-58
2022/09/13 10:54:06;;;;;;;;;;;;;;;18.79;65.88;100556.97;4968578;28;19932;-56
2022/09/13 10:56:31;;;;;;;;;;;;;;;18.84;65.76;100557.34;4969722;28;19961;-58
2022/09/13 10:59:18;;;;;;;;;;;;;;;18.87;65.93;100553.56;4968444;28;19926;-58
2022/09/13 11:01:52;;;;;;;;;;;;;;;18.96;65.53;100551.88;4967318;28;19964;-57
2022/09/13 11:04:41;;;;;;;;;;;;;;;19.02;65.67;100544.13;4967927;28;19929;-57
2022/09/13 11:07:07;;;;;;;;;;;;;;;19.12;65.46;100546.75;4968035;28;20382;-57
2022/09/13 11:09:35;;;;;;;;;;;;;;;19.15;65.78;100541.09;4968092;28;19925;-57
2022/09/13 11:12:08;;;;;;;;;;;;;;;19.18;65.56;100546.13;4967377;28;20318;-59
2022/09/13 11:14:48;;;;;;;;;;;;;;;19.23;65.30;100543.00;4967011;28;20001;-55
2022/09/13 11:17:31;;;;;;;;;;;;;;;19.24;65.02;100527.84;4967100;28;19922;-57
2022/09/13 11:20:15;;;;;;;;;;;;;;;19.25;65.17;100534.88;4968102;28;20452;-60
2022/09/13 11:22:47;;;;;;;;;;;;;;;19.29;65.24;100525.56;4966931;28;19976;-54
2022/09/13 11:25:21;;;;;;;;;;;;;;;19.36;65.13;100521.31;4967979;28;19932;-57
2022/09/13 11:27:52;;;;;;;;;;;;;;;19.44;65.03;100512.53;4964049;28;20322;-57
2022/09/13 11:30:18;;;;;;;;;;;;;;;19.51;64.64;100513.63;4965020;28;19929;-56
2022/09/13 11:33:02;;;;;;;;;;;;;;;19.56;64.54;100515.81;4964107;28;20309;-56
2022/09/13 11:35:30;;;;;;;;;;;;;;;19.61;64.52;100513.50;4969810;28;19968;-59
2022/09/13 11:38:08;;;;;;;;;;;;;;;19.67;64.61;100518.25;4966914;28;20413;-57
2022/09/13 11:40:42;;;;;;;;;;;;;;;19.71;64.25;100514.28;4967441;28;19973;-55
2022/09/13 11:43:17;;;;;;;;;;;;;;;19.77;64.21;100513.66;4966579;28;19922;-57
2022/09/13 11:45:57;;;;;;;;;;;;;;;19.86;64.13;100516.41;4965460;28;20839;-57
2022/09/13 11:48:42;;;;;;;;;;;;;;;19.90;63.83;100512.44;4964887;28;20566;-55
2022/09/13 11:51:17;;;;;;;;;;;;;;;19.89;64.04;100514.28;4944698;28;19926;-59
2022/09/13 11:53:49;;;;;;;;;;;;;;;19.85;64.09;100501.38;4964402;28;20386;-57
2022/09/13 11:56:28;;;;;;;;;;;;;;;19.80;64.01;100508.00;4970347;28;19929;-55
2022/09/13 11:59:16;;;;;;;;;;;;;;;19.76;63.96;100514.66;4965563;28;20052;-57
2022/09/13 12:01:48;;;;;;;;;;;;;;;19.73;64.05;100512.31;4952767;28;19917;-55
2022/09/13 12:04:16;;;;;;;;;;;;;;;19.72;64.04;100525.78;4965194;28;19928;-60
2022/09/13 12:06:45;;;;;;;;;;;;;;;19.69;64.21;100524.28;4962223;28;19934;-58
2022/09/13 12:09:13;;;;;;;;;;;;;;;19.66;64.43;100537.94;4967569;28;19926;-59
2022/09/13 12:11:42;;;;;;;;;;;;;;;19.63;64.36;100527.53;4977588;28;19918;-57
2022/09/13 12:14:19;;;;;;;;;;;;;;;19.59;64.35;100521.69;4966503;28;19930;-55
2022/09/13 12:16:47;;;;;;;;;;;;;;;19.58;64.44;100521.84;4964683;28;21200;-55
2022/09/13 12:19:21;;;;;;;;;;;;;;;19.57;64.53;100517.50;4965271;28;19922;-57
2022/09/13 12:21:48;;;;;;;;;;;;;;;19.54;64.47;100515.97;4965998;28;19922;-56
2022/09/13 12:24:17;;;;;;;;;;;;;;;19.54;64.53;100523.97;4966189;28;19972;-56
2022/09/13 12:26:44;;;;;;;;;;;;;;;19.56;64.58;100515.81;4966982;28;20013;-57
2022/09/13 12:29:26;;;;;;;;;;;;;;;19.57;64.64;100520.16;4967308;28;20394;-57
2022/09/13 12:31:54;;;;;;;;;;;;;;;19.58;64.64;100524.53;4966744;28;20342;-57
2022/09/13 12:34:23;;;;;;;;;;;;;;;19.57;64.59;100515.66;4965738;28;20017;-56
2022/09/13 12:37:07;;;;;;;;;;;;;;;19.61;64.70;100518.84;4967568;28;20380;-58
2022/09/13 12:39:52;;;;;;;;;;;;;;;19.69;64.97;100521.59;4967396;28;19929;-56
2022/09/13 12:42:20;;;;;;;;;;;;;;;19.77;64.71;100507.50;4965101;28;20425;-58
2022/09/13 12:44:53;;;;;;;;;;;;;;;19.84;64.56;100507.72;4966402;28;20028;-54
2022/09/13 12:47:41;;;;;;;;;;;;;;;19.89;64.60;100510.78;4965852;28;19926;-56
2022/09/13 12:50:17;;;;;;;;;;;;;;;19.88;64.47;100499.25;4959777;28;19988;-54